Amelia, Louisiana
Current Conditions -  °F | °C
As of 12:35 PM on Friday 31 Oct 2014 (Local Time) from KPTN Reporting Station
Clear Clear  
Wind Chill: 73°   Ceiling: Unl
Heat Index: 73°   Visibility: 10mi
Dew Point: 52°   Wind: 10mph
Humidity: 47%   Direction: 340°NNW
Pressure: 30.1"   Gusts: NA
Location:  29.67°N, 91.1°W
Report Text: KPTN 311735Z AUTO 34009KT 10SM CLR 23/11 A3010 RMK AO1
Loading
Personal Weather Stations






























Interactive Weather Map
Tropical Storm Tracking
New forecast layout! Learn more

10-Day Weather Forecast

Advertisements
Track Severe Weather on mobile